createdAt,value
2023-04-30T00:01:19.004Z,82.46
2023-04-30T00:03:47.806Z,84.11
2023-04-30T00:06:16.034Z,85.60
2023-04-30T00:08:43.572Z,84.24
2023-04-30T00:11:11.375Z,84.14
2023-04-30T00:13:39.214Z,82.84
2023-04-30T00:16:06.769Z,83.12
2023-04-30T00:18:34.609Z,86.00
2023-04-30T00:21:02.138Z,88.42
2023-04-30T00:23:29.665Z,87.94
2023-04-30T00:25:57.365Z,88.56
2023-04-30T00:28:25.149Z,87.16
2023-04-30T00:30:53.270Z,86.18
2023-04-30T00:33:21.269Z,85.54
2023-04-30T00:35:48.760Z,85.10
2023-04-30T00:38:16.283Z,84.87
2023-04-30T00:40:44.472Z,84.48
2023-04-30T00:43:11.959Z,84.83
2023-04-30T00:45:39.424Z,85.41
2023-04-30T00:48:07.908Z,86.15
2023-04-30T00:50:36.589Z,85.30
2023-04-30T00:53:04.421Z,84.72
2023-04-30T00:55:32.328Z,84.56
2023-04-30T00:58:00.921Z,84.64
2023-04-30T01:00:28.774Z,84.79
2023-04-30T01:02:57.049Z,84.82
2023-04-30T01:05:24.771Z,85.17
2023-04-30T01:07:53.336Z,86.20
2023-04-30T01:10:23.298Z,86.83
2023-04-30T01:12:57.154Z,85.50
2023-04-30T01:15:29.505Z,85.45
2023-04-30T01:18:09.221Z,85.25
2023-04-30T01:20:39.746Z,84.94
2023-04-30T01:23:27.967Z,85.55
2023-04-30T01:26:13.355Z,85.26
2023-04-30T01:28:43.529Z,85.58
2023-04-30T01:31:13.803Z,86.34
2023-04-30T01:33:41.493Z,85.45
2023-04-30T01:36:17.772Z,85.21
2023-04-30T01:38:50.970Z,87.58
2023-04-30T01:41:38.617Z,87.47
2023-04-30T01:44:18.423Z,85.86
2023-04-30T01:47:06.465Z,87.86
2023-04-30T01:49:40.151Z,88.99
2023-04-30T01:52:15.639Z,87.39
2023-04-30T01:55:33.696Z,86.34
2023-04-30T01:58:03.760Z,86.66
2023-04-30T02:00:31.898Z,85.52
2023-04-30T02:03:00.485Z,84.97
2023-04-30T02:05:28.121Z,84.58
2023-04-30T02:07:56.676Z,84.42
2023-04-30T02:10:26.424Z,84.35
2023-04-30T02:12:54.144Z,84.98
2023-04-30T02:15:21.762Z,86.20
2023-04-30T02:17:49.612Z,87.86
2023-04-30T02:20:17.316Z,88.27
2023-04-30T02:22:45.097Z,87.90
2023-04-30T02:25:14.192Z,86.61
2023-04-30T02:27:41.705Z,85.74
2023-04-30T02:30:10.718Z,85.50
2023-04-30T02:32:39.043Z,84.98
2023-04-30T02:35:06.705Z,86.08
2023-04-30T02:37:34.243Z,87.20
2023-04-30T02:40:02.090Z,87.78
2023-04-30T02:42:29.830Z,87.23
2023-04-30T02:44:57.351Z,85.89
2023-04-30T02:47:25.260Z,87.55
2023-04-30T02:49:53.131Z,87.49
2023-04-30T02:52:20.775Z,86.92
2023-04-30T02:54:48.767Z,87.08
2023-04-30T02:57:16.588Z,86.40
2023-04-30T02:59:46.295Z,85.88
2023-04-30T03:02:14.620Z,86.47
2023-04-30T03:04:42.236Z,86.59
2023-04-30T03:07:09.704Z,87.09
2023-04-30T03:09:37.683Z,86.93
2023-04-30T03:12:05.831Z,86.24
2023-04-30T03:14:33.329Z,85.47
2023-04-30T03:17:01.122Z,85.75
2023-04-30T03:19:28.983Z,85.96
2023-04-30T03:21:56.765Z,85.54
2023-04-30T03:24:25.248Z,85.17
2023-04-30T03:26:52.736Z,85.74
2023-04-30T03:29:20.318Z,84.81
2023-04-30T03:31:48.281Z,84.53
2023-04-30T03:34:16.204Z,84.54
2023-04-30T03:36:43.685Z,84.89
2023-04-30T03:39:12.049Z,84.75
2023-04-30T03:41:39.577Z,84.87
2023-04-30T03:44:08.799Z,85.36
2023-04-30T03:46:36.691Z,85.18
2023-04-30T03:49:04.360Z,85.30
2023-04-30T03:51:31.941Z,84.54
2023-04-30T03:53:59.870Z,86.98
2023-04-30T03:56:27.376Z,86.08
2023-04-30T03:58:55.034Z,85.24
2023-04-30T04:01:23.221Z,85.10
2023-04-30T04:03:51.421Z,84.96
2023-04-30T04:06:18.985Z,85.18
2023-04-30T04:08:46.878Z,85.69
2023-04-30T04:11:14.951Z,85.74
2023-04-30T04:13:42.468Z,85.87
2023-04-30T04:16:09.905Z,85.82
2023-04-30T04:18:38.132Z,86.41
2023-04-30T04:21:06.754Z,86.37
2023-04-30T04:23:34.780Z,84.95
2023-04-30T04:26:03.126Z,84.61
2023-04-30T04:28:31.219Z,84.86
2023-04-30T04:30:59.629Z,85.02
2023-04-30T04:33:27.886Z,84.66
2023-04-30T04:35:57.883Z,84.92
2023-04-30T04:38:26.235Z,84.65
2023-04-30T04:40:54.605Z,84.40
2023-04-30T04:43:22.395Z,83.41
2023-04-30T04:45:49.990Z,83.19
2023-04-30T04:48:18.151Z,82.41
2023-04-30T04:50:45.642Z,82.37
2023-04-30T04:53:14.091Z,82.59
2023-04-30T04:55:41.762Z,83.00
2023-04-30T04:58:09.358Z,83.17
2023-04-30T05:00:37.588Z,83.09
2023-04-30T05:03:05.547Z,82.54
2023-04-30T05:05:33.075Z,83.15
2023-04-30T05:08:00.754Z,83.05
2023-04-30T05:10:28.757Z,82.00
2023-04-30T05:12:56.409Z,82.16
2023-04-30T05:15:24.063Z,81.72
2023-04-30T05:17:51.813Z,82.00
2023-04-30T05:20:19.384Z,81.44
2023-04-30T05:22:46.865Z,81.54
2023-04-30T05:25:14.667Z,82.39
2023-04-30T05:27:42.182Z,82.09
2023-04-30T05:30:10.514Z,81.91
2023-04-30T05:32:38.665Z,81.48
2023-04-30T05:35:06.743Z,81.07
2023-04-30T05:37:34.205Z,80.60
2023-04-30T05:40:02.018Z,80.41
2023-04-30T05:42:29.551Z,80.20
2023-04-30T05:44:57.149Z,79.89
2023-04-30T05:47:24.970Z,80.56
2023-04-30T05:49:52.837Z,80.20
2023-04-30T05:52:20.634Z,80.91
2023-04-30T05:54:50.064Z,80.94
2023-04-30T05:57:17.776Z,79.78
2023-04-30T05:59:45.419Z,80.23
2023-04-30T06:02:13.338Z,79.03
2023-04-30T06:04:41.265Z,79.74
2023-04-30T06:07:08.715Z,78.61
2023-04-30T06:09:36.417Z,76.83
2023-04-30T06:12:04.499Z,76.15
2023-04-30T06:14:32.151Z,75.02
2023-04-30T06:16:59.655Z,70.44
2023-04-30T06:19:27.550Z,70.49
2023-04-30T06:21:55.014Z,67.06
2023-04-30T06:24:22.743Z,67.78
2023-04-30T06:26:50.708Z,67.39
2023-04-30T06:29:18.185Z,67.06
2023-04-30T06:31:45.836Z,66.57
2023-04-30T06:34:13.963Z,67.57
2023-04-30T06:36:41.456Z,67.25
2023-04-30T06:39:08.973Z,66.50
2023-04-30T06:41:36.753Z,67.23
2023-04-30T06:44:07.287Z,66.77
2023-04-30T06:46:35.062Z,65.93
2023-04-30T06:49:02.952Z,65.75
2023-04-30T06:51:31.060Z,64.69
2023-04-30T06:53:58.685Z,64.25
2023-04-30T06:56:26.730Z,63.87
2023-04-30T06:58:54.664Z,62.55
2023-04-30T07:01:22.280Z,63.06
2023-04-30T07:03:52.432Z,63.18
2023-04-30T07:06:20.846Z,63.48
2023-04-30T07:08:48.967Z,63.21
2023-04-30T07:11:16.931Z,61.61
2023-04-30T07:13:44.451Z,62.40
2023-04-30T07:16:12.121Z,62.39
2023-04-30T07:18:40.912Z,61.83
2023-04-30T07:21:08.719Z,60.95
2023-04-30T07:23:36.477Z,60.52
2023-04-30T07:26:04.264Z,59.96
2023-04-30T07:28:31.726Z,60.43
2023-04-30T07:31:00.327Z,57.99
2023-04-30T07:33:28.208Z,57.76
2023-04-30T07:35:57.041Z,57.13
2023-04-30T07:38:25.305Z,55.72
2023-04-30T07:40:53.099Z,56.37
2023-04-30T07:43:21.080Z,54.89
2023-04-30T07:45:49.988Z,55.68
2023-04-30T07:48:18.055Z,55.74
2023-04-30T07:50:52.658Z,56.31
2023-04-30T07:53:20.843Z,56.58
2023-04-30T07:55:48.377Z,57.08
2023-04-30T07:58:15.858Z,55.44
2023-04-30T08:00:43.574Z,55.72
2023-04-30T08:03:12.306Z,54.88
2023-04-30T08:05:41.412Z,55.31
2023-04-30T08:08:08.950Z,54.96
2023-04-30T08:10:37.329Z,53.48
2023-04-30T08:13:05.687Z,53.52
2023-04-30T08:15:36.389Z,53.29
2023-04-30T08:18:05.859Z,53.29
2023-04-30T08:20:34.549Z,53.07
2023-04-30T08:23:03.643Z,52.79
2023-04-30T08:25:31.950Z,51.25
2023-04-30T08:27:59.794Z,51.51
2023-04-30T08:30:27.446Z,49.99
2023-04-30T08:32:57.501Z,50.19
2023-04-30T08:35:25.666Z,48.13
2023-04-30T08:37:54.096Z,48.77
2023-04-30T08:40:23.566Z,48.33
2023-04-30T08:43:09.120Z,48.65
2023-04-30T08:45:37.173Z,47.07
2023-04-30T08:48:06.858Z,48.15
2023-04-30T08:50:35.116Z,49.62
2023-04-30T08:53:03.495Z,49.62
2023-04-30T08:55:34.079Z,50.27
2023-04-30T08:58:01.789Z,49.21
2023-04-30T09:00:32.358Z,49.39
2023-04-30T09:03:01.278Z,47.66
2023-04-30T09:05:29.500Z,46.26
2023-04-30T09:10:32.615Z,47.67
2023-04-30T09:13:04.203Z,47.90
2023-04-30T09:15:33.353Z,47.06
2023-04-30T09:18:17.479Z,47.74
2023-04-30T09:20:58.578Z,46.16
2023-04-30T09:23:26.187Z,46.82
2023-04-30T09:25:54.116Z,46.08
2023-04-30T09:28:27.388Z,47.49
2023-04-30T09:30:58.333Z,49.13
2023-04-30T09:33:26.288Z,45.51
2023-04-30T09:35:53.864Z,43.18
2023-04-30T09:38:32.636Z,47.71
2023-04-30T09:41:01.264Z,52.29
2023-04-30T09:43:29.831Z,53.21
2023-04-30T09:45:59.147Z,51.99
2023-04-30T09:48:30.449Z,52.21
2023-04-30T09:50:58.260Z,52.29
2023-04-30T09:53:26.633Z,49.28
2023-04-30T09:55:55.294Z,48.58
2023-04-30T09:58:28.236Z,50.25
2023-04-30T10:00:58.463Z,49.02
2023-04-30T10:03:26.564Z,49.99
2023-04-30T10:05:54.279Z,48.93
2023-04-30T10:08:26.875Z,49.40
2023-04-30T10:10:59.601Z,50.22
2023-04-30T10:13:31.438Z,49.40
2023-04-30T10:16:01.820Z,49.37
2023-04-30T10:18:33.111Z,50.06
2023-04-30T10:21:04.025Z,50.71
2023-04-30T10:23:31.517Z,53.48
2023-04-30T10:25:58.930Z,53.62
2023-04-30T10:28:27.189Z,53.29
2023-04-30T10:30:54.955Z,51.72
2023-04-30T10:33:31.806Z,49.66
2023-04-30T10:36:01.204Z,48.42
2023-04-30T10:38:30.978Z,47.83
2023-04-30T10:41:02.400Z,51.20
2023-04-30T10:43:31.115Z,52.25
2023-04-30T10:45:59.365Z,51.88
2023-04-30T10:48:27.486Z,51.78
2023-04-30T10:50:58.914Z,49.65
2023-04-30T10:53:28.935Z,48.87
2023-04-30T10:56:09.261Z,50.22
2023-04-30T10:58:39.441Z,47.27
2023-04-30T11:01:15.731Z,44.84
2023-04-30T11:04:05.859Z,45.90
2023-04-30T11:07:03.728Z,45.04
2023-04-30T11:09:57.384Z,46.71
2023-04-30T11:12:29.942Z,46.96
2023-04-30T11:15:13.487Z,45.79
2023-04-30T11:17:41.311Z,46.37
2023-04-30T11:20:12.948Z,48.59
2023-04-30T11:22:41.154Z,48.75
2023-04-30T11:25:10.613Z,48.08
2023-04-30T11:27:42.084Z,48.11
2023-04-30T11:30:15.472Z,47.39
2023-04-30T11:32:49.876Z,45.82
2023-04-30T11:35:19.601Z,45.44
2023-04-30T11:37:48.431Z,44.11
2023-04-30T11:40:16.058Z,44.36
2023-04-30T11:42:46.072Z,41.86
2023-04-30T11:45:20.695Z,42.02
2023-04-30T11:47:50.445Z,42.36
2023-04-30T11:50:27.562Z,42.57
2023-04-30T11:52:57.374Z,42.06
2023-04-30T11:55:26.238Z,42.25
2023-04-30T11:57:56.606Z,41.92
2023-04-30T12:00:31.637Z,42.70
2023-04-30T12:03:02.482Z,41.78
2023-04-30T12:05:30.433Z,41.70
2023-04-30T12:08:07.868Z,40.75
2023-04-30T12:10:36.186Z,39.04
2023-04-30T12:13:03.696Z,39.26
2023-04-30T12:15:33.092Z,38.94
2023-04-30T12:18:15.329Z,37.81
2023-04-30T12:20:43.159Z,38.56
2023-04-30T12:23:10.947Z,37.45
2023-04-30T12:25:45.682Z,34.77
2023-04-30T12:28:13.919Z,34.67
2023-04-30T12:30:43.322Z,35.27
2023-04-30T12:33:11.314Z,36.98
2023-04-30T12:35:43.134Z,37.13
2023-04-30T12:38:10.722Z,37.89
2023-04-30T12:40:38.293Z,38.34
2023-04-30T12:43:08.049Z,38.46
2023-04-30T12:45:55.904Z,39.38
2023-04-30T12:48:25.062Z,39.81
2023-04-30T12:50:58.816Z,38.20
2023-04-30T12:53:27.468Z,37.18
2023-04-30T12:56:09.443Z,35.60
2023-04-30T12:58:38.813Z,34.30
2023-04-30T13:01:11.237Z,35.76
2023-04-30T13:03:39.427Z,37.01
2023-04-30T13:06:07.509Z,38.21
2023-04-30T13:08:45.756Z,38.91
2023-04-30T13:11:22.938Z,38.12
2023-04-30T13:13:50.678Z,36.77
2023-04-30T13:16:19.418Z,36.40
2023-04-30T13:18:47.207Z,36.15
2023-04-30T13:21:14.646Z,37.12
2023-04-30T13:23:51.950Z,37.55
2023-04-30T13:26:23.337Z,38.74
2023-04-30T13:28:51.511Z,40.12
2023-04-30T13:31:19.407Z,39.85
2023-04-30T13:33:47.370Z,45.74
2023-04-30T13:36:15.513Z,45.64
2023-04-30T13:38:43.352Z,47.35
2023-04-30T13:41:11.285Z,47.41
2023-04-30T13:43:42.125Z,47.52
2023-04-30T13:46:10.300Z,47.00
2023-04-30T13:48:38.325Z,47.07
2023-04-30T13:51:05.858Z,47.38
2023-04-30T13:53:33.422Z,48.99
2023-04-30T13:56:01.176Z,49.02
2023-04-30T13:58:28.742Z,50.68
2023-04-30T14:00:56.533Z,50.02
2023-04-30T14:03:24.599Z,50.35
2023-04-30T14:05:52.160Z,50.78
2023-04-30T14:08:21.232Z,50.30
2023-04-30T14:10:51.073Z,50.23
2023-04-30T14:13:18.780Z,50.70
2023-04-30T14:15:47.846Z,50.29
2023-04-30T14:18:15.677Z,51.10
2023-04-30T14:20:43.327Z,50.48
2023-04-30T14:23:10.965Z,50.17
2023-04-30T14:25:38.791Z,49.95
2023-04-30T14:28:06.324Z,48.98
2023-04-30T14:30:33.883Z,50.93
2023-04-30T14:33:01.784Z,49.03
2023-04-30T14:35:29.416Z,48.64
2023-04-30T14:37:57.147Z,48.16
2023-04-30T14:40:24.872Z,49.82
2023-04-30T14:42:52.663Z,49.83
2023-04-30T14:45:20.476Z,50.38
2023-04-30T14:47:48.631Z,50.13
2023-04-30T14:50:16.395Z,49.11
2023-04-30T14:52:44.001Z,49.23
2023-04-30T14:55:12.042Z,50.70
2023-04-30T14:57:39.687Z,50.19
2023-04-30T15:00:07.981Z,50.56
2023-04-30T15:02:36.386Z,51.81
2023-04-30T15:05:08.360Z,51.01
2023-04-30T15:07:36.898Z,52.48
2023-04-30T15:10:06.623Z,56.58
2023-04-30T15:12:35.633Z,57.42
2023-04-30T15:15:04.745Z,55.89
2023-04-30T15:17:34.857Z,55.79
2023-04-30T15:20:04.697Z,55.45
2023-04-30T15:22:33.328Z,55.64
2023-04-30T15:25:00.991Z,55.49
2023-04-30T15:27:28.810Z,54.48
2023-04-30T15:29:56.565Z,53.63
2023-04-30T15:32:24.569Z,53.77
2023-04-30T15:34:52.254Z,53.58
2023-04-30T15:37:19.765Z,51.74
2023-04-30T15:39:48.390Z,50.39
2023-04-30T15:42:17.577Z,49.79
2023-04-30T15:44:45.076Z,49.54
2023-04-30T15:47:12.730Z,51.62
2023-04-30T15:49:40.777Z,51.66
2023-04-30T15:52:08.522Z,50.72
2023-04-30T15:54:36.120Z,50.62
2023-04-30T15:57:04.057Z,50.56
2023-04-30T15:59:31.558Z,51.35
2023-04-30T16:01:59.665Z,50.90
2023-04-30T16:04:27.997Z,51.34
2023-04-30T16:06:57.104Z,51.14
2023-04-30T16:09:24.678Z,50.25
2023-04-30T16:11:52.692Z,50.27
2023-04-30T16:14:20.722Z,49.02
2023-04-30T16:16:48.285Z,48.85
2023-04-30T16:19:17.146Z,49.12
2023-04-30T16:21:44.965Z,49.74
2023-04-30T16:24:12.816Z,50.79
2023-04-30T16:26:40.533Z,50.11
2023-04-30T16:29:09.133Z,49.71
2023-04-30T16:31:36.908Z,48.66
2023-04-30T16:34:04.699Z,49.76
2023-04-30T16:36:32.812Z,48.69
2023-04-30T16:39:00.370Z,50.50
2023-04-30T16:41:28.144Z,49.86
2023-04-30T16:43:55.820Z,49.71
2023-04-30T16:46:23.292Z,49.63
2023-04-30T16:48:51.133Z,49.00
2023-04-30T16:51:18.780Z,49.39
2023-04-30T16:53:46.467Z,49.59
2023-04-30T16:56:14.373Z,50.70
2023-04-30T16:58:41.852Z,51.44
2023-04-30T17:01:09.432Z,52.03
2023-04-30T17:03:37.574Z,52.11
2023-04-30T17:06:06.513Z,52.78
2023-04-30T17:08:34.462Z,52.92
2023-04-30T17:11:02.372Z,53.44
2023-04-30T17:13:32.200Z,53.19
2023-04-30T17:16:02.025Z,53.52
2023-04-30T17:18:29.990Z,54.27
2023-04-30T17:20:57.512Z,53.67
2023-04-30T17:23:25.693Z,53.81
2023-04-30T17:25:53.798Z,54.42
2023-04-30T17:28:21.823Z,54.49
2023-04-30T17:30:49.991Z,54.29
2023-04-30T17:33:18.174Z,54.79
2023-04-30T17:35:46.016Z,55.94
2023-04-30T17:38:13.755Z,56.71
2023-04-30T17:40:42.007Z,57.03
2023-04-30T17:43:09.771Z,56.66
2023-04-30T17:45:37.271Z,56.91
2023-04-30T17:48:05.145Z,57.10
2023-04-30T17:50:32.650Z,57.49
2023-04-30T17:53:00.822Z,57.57
2023-04-30T17:55:28.932Z,57.51
2023-04-30T17:57:57.228Z,57.77
2023-04-30T18:00:25.196Z,57.91
2023-04-30T18:02:53.518Z,58.03
2023-04-30T18:05:21.449Z,58.35
2023-04-30T18:07:49.073Z,58.23
2023-04-30T18:10:17.665Z,57.89
2023-04-30T18:12:54.048Z,58.29
2023-04-30T18:15:22.093Z,58.48
2023-04-30T18:17:49.624Z,59.06
2023-04-30T18:20:17.130Z,59.08
2023-04-30T18:22:45.026Z,59.46
2023-04-30T18:25:13.532Z,59.65
2023-04-30T18:27:41.034Z,59.93
2023-04-30T18:30:10.161Z,60.69
2023-04-30T18:32:38.185Z,60.35
2023-04-30T18:35:06.413Z,61.13
2023-04-30T18:37:34.146Z,61.06
2023-04-30T18:40:02.431Z,61.14
2023-04-30T18:42:30.243Z,61.44
2023-04-30T18:44:58.398Z,61.94
2023-04-30T18:47:26.045Z,62.43
2023-04-30T18:49:53.653Z,62.69
2023-04-30T18:52:22.796Z,63.20
2023-04-30T18:54:51.115Z,63.74
2023-04-30T18:57:18.680Z,63.93
2023-04-30T18:59:47.628Z,64.15
2023-04-30T19:02:15.621Z,64.46
2023-04-30T19:04:43.375Z,65.25
2023-04-30T19:07:12.038Z,65.66
2023-04-30T19:09:39.722Z,65.79
2023-04-30T19:12:07.564Z,66.34
2023-04-30T19:14:35.540Z,66.44
2023-04-30T19:17:03.633Z,67.02
2023-04-30T19:19:31.260Z,67.69
2023-04-30T19:21:59.310Z,68.31
2023-04-30T19:24:26.989Z,69.02
2023-04-30T19:26:55.342Z,69.14
2023-04-30T19:29:24.567Z,70.53
2023-04-30T19:31:52.696Z,70.86
2023-04-30T19:34:20.451Z,70.82
2023-04-30T19:36:49.079Z,72.05
2023-04-30T19:39:16.942Z,72.55
2023-04-30T19:41:45.697Z,71.93
2023-04-30T19:44:15.223Z,73.72
2023-04-30T19:46:43.257Z,71.83
2023-04-30T19:49:11.452Z,72.71
2023-04-30T19:51:39.747Z,72.47
2023-04-30T19:54:10.489Z,73.18
2023-04-30T19:56:38.181Z,73.32
2023-04-30T19:59:06.271Z,73.74
2023-04-30T20:01:34.465Z,72.76
2023-04-30T20:04:06.847Z,73.76
2023-04-30T20:06:34.579Z,75.13
2023-04-30T20:09:02.524Z,77.08
2023-04-30T20:11:30.512Z,77.25
2023-04-30T20:13:58.360Z,77.49
2023-04-30T20:16:26.428Z,77.66
2023-04-30T20:18:54.226Z,76.61
2023-04-30T20:21:24.446Z,75.94
2023-04-30T20:23:52.433Z,76.46
2023-04-30T20:26:21.477Z,75.51
2023-04-30T20:28:49.245Z,76.03
2023-04-30T20:31:17.151Z,76.05
2023-04-30T20:33:44.980Z,76.98
2023-04-30T20:36:12.480Z,75.88
2023-04-30T20:38:41.644Z,75.16
2023-04-30T20:41:10.197Z,74.99
2023-04-30T20:43:38.218Z,75.29
2023-04-30T20:46:06.485Z,74.98
2023-04-30T20:48:34.106Z,74.12
2023-04-30T20:51:01.753Z,74.01
2023-04-30T20:53:29.583Z,73.43
2023-04-30T20:56:00.195Z,73.28
2023-04-30T20:58:28.786Z,73.30
2023-04-30T21:00:56.854Z,73.02
2023-04-30T21:03:24.644Z,73.33
2023-04-30T21:05:52.340Z,72.79
2023-04-30T21:08:20.062Z,72.89
2023-04-30T21:10:48.054Z,72.46
2023-04-30T21:13:15.544Z,72.20
2023-04-30T21:15:43.367Z,71.97
2023-04-30T21:18:11.524Z,71.62
2023-04-30T21:20:39.128Z,71.66
2023-04-30T21:23:07.430Z,71.43
2023-04-30T21:25:37.565Z,71.14
2023-04-30T21:28:05.194Z,70.76
2023-04-30T21:30:32.995Z,70.67
2023-04-30T21:33:00.683Z,70.57
2023-04-30T21:35:30.280Z,70.27
2023-04-30T21:37:58.048Z,69.82
2023-04-30T21:40:25.702Z,69.49
2023-04-30T21:42:53.261Z,69.19
2023-04-30T21:45:21.037Z,68.66
2023-04-30T21:47:48.882Z,68.51
2023-04-30T21:50:17.017Z,68.56
2023-04-30T21:52:44.850Z,68.70
2023-04-30T21:55:12.362Z,69.05
2023-04-30T21:57:39.909Z,68.98
2023-04-30T22:00:14.403Z,69.17
2023-04-30T22:02:48.897Z,69.22
2023-04-30T22:05:20.983Z,69.14
2023-04-30T22:07:48.702Z,69.55
2023-04-30T22:10:16.411Z,69.50
2023-04-30T22:12:47.353Z,69.51
2023-04-30T22:15:15.562Z,69.62
2023-04-30T22:17:43.206Z,69.76
2023-04-30T22:20:11.581Z,70.05
2023-04-30T22:22:43.446Z,69.59
2023-04-30T22:25:11.462Z,69.45
2023-04-30T22:27:39.100Z,69.24
2023-04-30T22:30:07.481Z,69.12
2023-04-30T22:32:35.558Z,69.54
2023-04-30T22:35:03.738Z,69.70
2023-04-30T22:37:31.447Z,69.71
2023-04-30T22:39:59.472Z,69.59
2023-04-30T22:42:27.019Z,69.88
2023-04-30T22:44:54.844Z,69.65
2023-04-30T22:47:22.726Z,69.83
2023-04-30T22:49:50.388Z,69.91
2023-04-30T22:52:18.242Z,70.33
2023-04-30T22:54:47.199Z,70.40
2023-04-30T22:57:14.639Z,70.30
2023-04-30T22:59:42.406Z,70.45
2023-04-30T23:02:10.470Z,70.62
2023-04-30T23:04:38.023Z,70.57
2023-04-30T23:07:05.862Z,70.40
2023-04-30T23:09:33.939Z,70.53
2023-04-30T23:12:02.111Z,70.28
2023-04-30T23:14:29.934Z,70.27
2023-04-30T23:16:57.789Z,70.19
2023-04-30T23:19:25.472Z,70.41
2023-04-30T23:21:53.383Z,70.36
2023-04-30T23:24:21.090Z,70.69
2023-04-30T23:26:48.682Z,70.35
2023-04-30T23:29:16.446Z,70.26
2023-04-30T23:31:44.728Z,70.27
2023-04-30T23:34:12.556Z,70.42
2023-04-30T23:36:40.142Z,70.27
2023-04-30T23:39:08.207Z,70.35
2023-04-30T23:41:36.126Z,70.75
2023-04-30T23:44:03.874Z,70.68
2023-04-30T23:46:32.344Z,70.80
2023-04-30T23:49:00.020Z,71.03
2023-04-30T23:51:27.784Z,71.27
2023-04-30T23:53:55.614Z,71.41
2023-04-30T23:56:23.910Z,71.25
2023-04-30T23:58:51.624Z,71.28
